sensor_id;sensor_type;location;lat;lon;timestamp;temperature;humidity
12720;DHT22;6424;48.520;11.228;2023-07-31T00:02:39;14.60;99.90
12720;DHT22;6424;48.520;11.228;2023-07-31T00:05:20;14.50;99.90
12720;DHT22;6424;48.520;11.228;2023-07-31T00:08:01;14.50;99.90
12720;DHT22;6424;48.520;11.228;2023-07-31T00:10:41;14.50;99.90
12720;DHT22;6424;48.520;11.228;2023-07-31T00:13:22;14.50;99.90
12720;DHT22;6424;48.520;11.228;2023-07-31T00:15:48;14.40;99.90
12720;DHT22;6424;48.520;11.228;2023-07-31T00:18:29;14.40;99.90
12720;DHT22;6424;48.520;11.228;2023-07-31T00:21:10;14.40;99.90
12720;DHT22;6424;48.520;11.228;2023-07-31T00:23:51;14.30;99.90
12720;DHT22;6424;48.520;11.228;2023-07-31T00:26:31;14.30;99.90
12720;DHT22;6424;48.520;11.228;2023-07-31T00:28:57;14.20;99.90
12720;DHT22;6424;48.520;11.228;2023-07-31T00:31:38;14.20;99.90
12720;DHT22;6424;48.520;11.228;2023-07-31T00:34:18;14.20;99.90
12720;DHT22;6424;48.520;11.228;2023-07-31T00:36:59;14.20;99.90
12720;DHT22;6424;48.520;11.228;2023-07-31T00:39:25;14.20;99.90
12720;DHT22;6424;48.520;11.228;2023-07-31T00:42:06;14.20;99.90
12720;DHT22;6424;48.520;11.228;2023-07-31T00:44:32;14.20;99.90
12720;DHT22;6424;48.520;11.228;2023-07-31T00:47:13;14.20;99.90
12720;DHT22;6424;48.520;11.228;2023-07-31T00:49:38;14.20;99.90
12720;DHT22;6424;48.520;11.228;2023-07-31T00:52:19;14.30;99.90
12720;DHT22;6424;48.520;11.228;2023-07-31T00:55:01;14.30;99.90
12720;DHT22;6424;48.520;11.228;2023-07-31T00:57:42;14.30;99.90
12720;DHT22;6424;48.520;11.228;2023-07-31T01:00:23;14.30;99.90
12720;DHT22;6424;48.520;11.228;2023-07-31T01:02:50;14.30;99.90
12720;DHT22;6424;48.520;11.228;2023-07-31T01:06:03;14.30;99.90
12720;DHT22;6424;48.520;11.228;2023-07-31T01:09:01;14.30;99.90
12720;DHT22;6424;48.520;11.228;2023-07-31T01:11:48;14.40;99.90
12720;DHT22;6424;48.520;11.228;2023-07-31T01:14:31;14.40;99.90
12720;DHT22;6424;48.520;11.228;2023-07-31T01:17:12;14.40;99.90
12720;DHT22;6424;48.520;11.228;2023-07-31T01:19:54;14.30;99.90
12720;DHT22;6424;48.520;11.228;2023-07-31T01:28:50;14.20;99.90
12720;DHT22;6424;48.520;11.228;2023-07-31T01:31:36;14.20;99.90
12720;DHT22;6424;48.520;11.228;2023-07-31T01:34:19;14.10;99.90
12720;DHT22;6424;48.520;11.228;2023-07-31T01:37:01;14.10;99.90
12720;DHT22;6424;48.520;11.228;2023-07-31T01:39:43;14.00;99.90
12720;DHT22;6424;48.520;11.228;2023-07-31T01:42:24;14.00;99.90
12720;DHT22;6424;48.520;11.228;2023-07-31T01:45:05;13.90;99.90
12720;DHT22;6424;48.520;11.228;2023-07-31T01:47:46;13.90;99.90
12720;DHT22;6424;48.520;11.228;2023-07-31T01:50:27;13.90;99.90
12720;DHT22;6424;48.520;11.228;2023-07-31T01:53:08;13.90;99.90
12720;DHT22;6424;48.520;11.228;2023-07-31T01:55:48;13.90;99.90
12720;DHT22;6424;48.520;11.228;2023-07-31T01:58:29;13.90;99.90
12720;DHT22;6424;48.520;11.228;2023-07-31T02:01:10;13.80;99.90
12720;DHT22;6424;48.520;11.228;2023-07-31T02:03:50;13.80;99.90
12720;DHT22;6424;48.520;11.228;2023-07-31T02:06:31;13.80;99.90
12720;DHT22;6424;48.520;11.228;2023-07-31T02:09:12;13.80;99.90
12720;DHT22;6424;48.520;11.228;2023-07-31T02:11:53;13.80;99.90
12720;DHT22;6424;48.520;11.228;2023-07-31T02:14:34;13.90;99.90
12720;DHT22;6424;48.520;11.228;2023-07-31T02:17:15;13.90;99.90
12720;DHT22;6424;48.520;11.228;2023-07-31T02:19:55;13.90;99.90
12720;DHT22;6424;48.520;11.228;2023-07-31T02:22:36;13.80;99.90
12720;DHT22;6424;48.520;11.228;2023-07-31T02:25:17;13.80;99.90
12720;DHT22;6424;48.520;11.228;2023-07-31T02:27:58;13.80;99.90
12720;DHT22;6424;48.520;11.228;2023-07-31T02:30:38;13.80;99.90
12720;DHT22;6424;48.520;11.228;2023-07-31T02:33:05;13.80;99.90
12720;DHT22;6424;48.520;11.228;2023-07-31T02:35:46;13.80;99.90
12720;DHT22;6424;48.520;11.228;2023-07-31T02:38:26;13.70;99.90
12720;DHT22;6424;48.520;11.228;2023-07-31T02:40:52;13.70;99.90
12720;DHT22;6424;48.520;11.228;2023-07-31T02:43:33;13.70;99.90
12720;DHT22;6424;48.520;11.228;2023-07-31T02:46:14;13.70;99.90
12720;DHT22;6424;48.520;11.228;2023-07-31T02:48:54;13.70;99.90
12720;DHT22;6424;48.520;11.228;2023-07-31T02:51:35;13.60;99.90
12720;DHT22;6424;48.520;11.228;2023-07-31T02:54:16;13.60;99.90
12720;DHT22;6424;48.520;11.228;2023-07-31T02:56:56;13.60;99.90
12720;DHT22;6424;48.520;11.228;2023-07-31T02:59:37;13.50;99.90
12720;DHT22;6424;48.520;11.228;2023-07-31T03:02:18;13.50;99.90
12720;DHT22;6424;48.520;11.228;2023-07-31T03:04:59;13.50;99.90
12720;DHT22;6424;48.520;11.228;2023-07-31T03:07:40;13.50;99.90
12720;DHT22;6424;48.520;11.228;2023-07-31T03:10:20;13.40;99.90
12720;DHT22;6424;48.520;11.228;2023-07-31T03:13:01;13.40;99.90
12720;DHT22;6424;48.520;11.228;2023-07-31T03:15:42;13.40;99.90
12720;DHT22;6424;48.520;11.228;2023-07-31T03:18:23;13.40;99.90
12720;DHT22;6424;48.520;11.228;2023-07-31T03:21:04;13.40;99.90
12720;DHT22;6424;48.520;11.228;2023-07-31T03:23:45;13.40;99.90
12720;DHT22;6424;48.520;11.228;2023-07-31T03:26:26;13.40;99.90
12720;DHT22;6424;48.520;11.228;2023-07-31T03:29:07;13.40;99.90
12720;DHT22;6424;48.520;11.228;2023-07-31T03:31:48;13.30;99.90
12720;DHT22;6424;48.520;11.228;2023-07-31T03:34:29;13.30;99.90
12720;DHT22;6424;48.520;11.228;2023-07-31T03:37:10;13.30;99.90
12720;DHT22;6424;48.520;11.228;2023-07-31T03:39:51;13.30;99.90
12720;DHT22;6424;48.520;11.228;2023-07-31T03:42:32;13.30;99.90
12720;DHT22;6424;48.520;11.228;2023-07-31T03:45:12;13.30;99.90
12720;DHT22;6424;48.520;11.228;2023-07-31T03:47:53;13.20;99.90
12720;DHT22;6424;48.520;11.228;2023-07-31T03:50:35;13.20;99.90
12720;DHT22;6424;48.520;11.228;2023-07-31T03:53:00;13.20;99.90
12720;DHT22;6424;48.520;11.228;2023-07-31T03:55:41;13.30;99.90
12720;DHT22;6424;48.520;11.228;2023-07-31T03:58:22;13.20;99.90
12720;DHT22;6424;48.520;11.228;2023-07-31T04:01:03;13.30;99.90
12720;DHT22;6424;48.520;11.228;2023-07-31T04:03:44;13.30;99.90
12720;DHT22;6424;48.520;11.228;2023-07-31T04:06:24;13.40;99.90
12720;DHT22;6424;48.520;11.228;2023-07-31T04:08:50;13.40;99.90
12720;DHT22;6424;48.520;11.228;2023-07-31T04:11:31;13.50;99.90
12720;DHT22;6424;48.520;11.228;2023-07-31T04:14:12;13.50;99.90
12720;DHT22;6424;48.520;11.228;2023-07-31T04:16:52;13.60;99.90
12720;DHT22;6424;48.520;11.228;2023-07-31T04:19:33;13.70;99.90
12720;DHT22;6424;48.520;11.228;2023-07-31T04:22:14;13.90;99.90
12720;DHT22;6424;48.520;11.228;2023-07-31T04:24:55;14.10;99.90
12720;DHT22;6424;48.520;11.228;2023-07-31T04:27:35;14.70;99.90
12720;DHT22;6424;48.520;11.228;2023-07-31T04:30:16;15.50;99.90
12720;DHT22;6424;48.520;11.228;2023-07-31T04:32:57;16.40;99.90
12720;DHT22;6424;48.520;11.228;2023-07-31T04:35:38;17.40;99.90
12720;DHT22;6424;48.520;11.228;2023-07-31T04:38:19;18.50;99.90
12720;DHT22;6424;48.520;11.228;2023-07-31T04:41:00;19.50;99.90
12720;DHT22;6424;48.520;11.228;2023-07-31T04:43:41;20.40;99.90
12720;DHT22;6424;48.520;11.228;2023-07-31T04:46:22;21.20;99.90
12720;DHT22;6424;48.520;11.228;2023-07-31T04:49:03;21.80;99.90
12720;DHT22;6424;48.520;11.228;2023-07-31T04:51:43;22.30;99.90
12720;DHT22;6424;48.520;11.228;2023-07-31T04:54:24;22.90;99.90
12720;DHT22;6424;48.520;11.228;2023-07-31T04:57:05;23.30;99.90
12720;DHT22;6424;48.520;11.228;2023-07-31T04:59:46;23.50;99.90
12720;DHT22;6424;48.520;11.228;2023-07-31T05:02:27;23.90;99.90
12720;DHT22;6424;48.520;11.228;2023-07-31T05:05:08;24.00;99.90
12720;DHT22;6424;48.520;11.228;2023-07-31T05:07:48;24.10;99.90
12720;DHT22;6424;48.520;11.228;2023-07-31T05:10:29;23.60;99.90
12720;DHT22;6424;48.520;11.228;2023-07-31T05:13:10;22.60;99.90
12720;DHT22;6424;48.520;11.228;2023-07-31T05:15:51;21.60;99.90
12720;DHT22;6424;48.520;11.228;2023-07-31T05:18:32;20.50;99.90
12720;DHT22;6424;48.520;11.228;2023-07-31T05:21:13;19.60;99.90
12720;DHT22;6424;48.520;11.228;2023-07-31T05:23:54;19.00;99.90
12720;DHT22;6424;48.520;11.228;2023-07-31T05:26:34;18.50;99.90
12720;DHT22;6424;48.520;11.228;2023-07-31T05:29:15;18.10;99.90
12720;DHT22;6424;48.520;11.228;2023-07-31T05:31:57;17.80;99.90
12720;DHT22;6424;48.520;11.228;2023-07-31T05:34:38;17.60;99.90
12720;DHT22;6424;48.520;11.228;2023-07-31T05:37:19;17.50;99.90
12720;DHT22;6424;48.520;11.228;2023-07-31T05:39:59;17.30;99.90
12720;DHT22;6424;48.520;11.228;2023-07-31T05:42:40;17.30;99.90
12720;DHT22;6424;48.520;11.228;2023-07-31T05:45:07;17.20;99.90
12720;DHT22;6424;48.520;11.228;2023-07-31T05:47:47;17.10;99.90
12720;DHT22;6424;48.520;11.228;2023-07-31T05:50:29;17.00;99.90
12720;DHT22;6424;48.520;11.228;2023-07-31T05:53:10;17.00;99.90
12720;DHT22;6424;48.520;11.228;2023-07-31T05:55:51;16.90;99.90
12720;DHT22;6424;48.520;11.228;2023-07-31T05:58:32;16.70;99.90
12720;DHT22;6424;48.520;11.228;2023-07-31T06:01:12;17.00;99.90
12720;DHT22;6424;48.520;11.228;2023-07-31T06:03:53;17.00;99.90
12720;DHT22;6424;48.520;11.228;2023-07-31T06:06:34;17.10;99.90
12720;DHT22;6424;48.520;11.228;2023-07-31T06:09:15;17.20;99.90
12720;DHT22;6424;48.520;11.228;2023-07-31T06:11:56;17.30;99.90
12720;DHT22;6424;48.520;11.228;2023-07-31T06:14:36;17.40;99.90
12720;DHT22;6424;48.520;11.228;2023-07-31T06:17:02;17.60;99.90
12720;DHT22;6424;48.520;11.228;2023-07-31T06:19:43;17.70;99.90
12720;DHT22;6424;48.520;11.228;2023-07-31T06:22:24;17.70;99.90
12720;DHT22;6424;48.520;11.228;2023-07-31T06:24:50;17.80;99.90
12720;DHT22;6424;48.520;11.228;2023-07-31T06:27:30;17.80;99.90
12720;DHT22;6424;48.520;11.228;2023-07-31T06:30:11;17.90;99.90
12720;DHT22;6424;48.520;11.228;2023-07-31T06:32:52;17.90;99.90
12720;DHT22;6424;48.520;11.228;2023-07-31T06:35:33;17.90;99.90
12720;DHT22;6424;48.520;11.228;2023-07-31T06:38:14;17.90;99.90
12720;DHT22;6424;48.520;11.228;2023-07-31T06:40:54;17.90;99.90
12720;DHT22;6424;48.520;11.228;2023-07-31T06:43:36;18.00;99.90
12720;DHT22;6424;48.520;11.228;2023-07-31T06:46:17;18.00;99.90
12720;DHT22;6424;48.520;11.228;2023-07-31T06:48:58;18.10;99.90
12720;DHT22;6424;48.520;11.228;2023-07-31T06:51:39;18.10;99.90
12720;DHT22;6424;48.520;11.228;2023-07-31T06:54:05;18.20;99.90
12720;DHT22;6424;48.520;11.228;2023-07-31T06:56:45;18.30;99.90
12720;DHT22;6424;48.520;11.228;2023-07-31T06:59:26;18.50;99.90
12720;DHT22;6424;48.520;11.228;2023-07-31T07:02:07;18.50;99.90
12720;DHT22;6424;48.520;11.228;2023-07-31T07:04:49;18.60;99.90
12720;DHT22;6424;48.520;11.228;2023-07-31T07:07:30;18.60;99.90
12720;DHT22;6424;48.520;11.228;2023-07-31T07:09:56;18.50;99.90
12720;DHT22;6424;48.520;11.228;2023-07-31T07:12:36;18.50;99.90
12720;DHT22;6424;48.520;11.228;2023-07-31T07:15:17;18.70;99.90
12720;DHT22;6424;48.520;11.228;2023-07-31T07:17:58;18.90;99.90
12720;DHT22;6424;48.520;11.228;2023-07-31T07:20:39;19.00;99.90
12720;DHT22;6424;48.520;11.228;2023-07-31T07:23:20;19.10;99.90
12720;DHT22;6424;48.520;11.228;2023-07-31T07:26:01;19.20;99.90
12720;DHT22;6424;48.520;11.228;2023-07-31T07:28:42;19.40;99.90
12720;DHT22;6424;48.520;11.228;2023-07-31T07:31:22;19.80;99.90
12720;DHT22;6424;48.520;11.228;2023-07-31T07:34:03;19.90;99.90
12720;DHT22;6424;48.520;11.228;2023-07-31T07:36:44;20.10;99.90
12720;DHT22;6424;48.520;11.228;2023-07-31T07:39:25;20.10;99.90
12720;DHT22;6424;48.520;11.228;2023-07-31T07:42:06;20.30;99.90
12720;DHT22;6424;48.520;11.228;2023-07-31T07:44:31;20.60;99.90
12720;DHT22;6424;48.520;11.228;2023-07-31T07:47:12;20.70;99.90
12720;DHT22;6424;48.520;11.228;2023-07-31T07:49:53;20.70;99.90
12720;DHT22;6424;48.520;11.228;2023-07-31T07:52:34;20.80;99.90
12720;DHT22;6424;48.520;11.228;2023-07-31T07:55:15;21.00;99.90
12720;DHT22;6424;48.520;11.228;2023-07-31T07:57:56;21.10;99.90
12720;DHT22;6424;48.520;11.228;2023-07-31T08:00:36;21.10;99.90
12720;DHT22;6424;48.520;11.228;2023-07-31T08:03:17;21.00;99.90
12720;DHT22;6424;48.520;11.228;2023-07-31T08:05:59;21.00;99.90
12720;DHT22;6424;48.520;11.228;2023-07-31T08:08:40;21.10;99.90
12720;DHT22;6424;48.520;11.228;2023-07-31T08:11:21;21.30;99.90
12720;DHT22;6424;48.520;11.228;2023-07-31T08:14:03;21.40;99.90
12720;DHT22;6424;48.520;11.228;2023-07-31T08:16:44;21.70;99.90
12720;DHT22;6424;48.520;11.228;2023-07-31T08:19:26;21.70;99.90
12720;DHT22;6424;48.520;11.228;2023-07-31T08:22:07;21.70;99.90
12720;DHT22;6424;48.520;11.228;2023-07-31T08:24:32;21.60;99.90
12720;DHT22;6424;48.520;11.228;2023-07-31T08:26:58;21.60;99.90
12720;DHT22;6424;48.520;11.228;2023-07-31T08:29:39;21.50;99.90
12720;DHT22;6424;48.520;11.228;2023-07-31T08:32:20;21.50;99.90
12720;DHT22;6424;48.520;11.228;2023-07-31T08:35:00;21.40;99.90
12720;DHT22;6424;48.520;11.228;2023-07-31T08:37:41;21.30;99.90
12720;DHT22;6424;48.520;11.228;2023-07-31T08:40:08;21.10;99.90
12720;DHT22;6424;48.520;11.228;2023-07-31T08:42:52;21.00;99.90
12720;DHT22;6424;48.520;11.228;2023-07-31T08:45:34;20.80;99.90
12720;DHT22;6424;48.520;11.228;2023-07-31T08:48:15;20.70;99.90
12720;DHT22;6424;48.520;11.228;2023-07-31T08:50:57;20.60;99.90
12720;DHT22;6424;48.520;11.228;2023-07-31T08:53:38;20.50;99.90
12720;DHT22;6424;48.520;11.228;2023-07-31T08:56:19;20.70;99.90
12720;DHT22;6424;48.520;11.228;2023-07-31T08:59:02;21.00;99.90
12720;DHT22;6424;48.520;11.228;2023-07-31T09:01:49;21.40;99.90
12720;DHT22;6424;48.520;11.228;2023-07-31T09:04:30;21.80;99.90
12720;DHT22;6424;48.520;11.228;2023-07-31T09:07:12;22.10;99.90
12720;DHT22;6424;48.520;11.228;2023-07-31T09:09:54;22.10;99.90
12720;DHT22;6424;48.520;11.228;2023-07-31T09:12:35;22.00;99.90
12720;DHT22;6424;48.520;11.228;2023-07-31T09:15:16;21.80;99.90
12720;DHT22;6424;48.520;11.228;2023-07-31T09:18:01;21.60;99.90
12720;DHT22;6424;48.520;11.228;2023-07-31T09:20:42;21.40;99.90
12720;DHT22;6424;48.520;11.228;2023-07-31T09:23:23;21.40;99.90
12720;DHT22;6424;48.520;11.228;2023-07-31T09:26:04;21.40;99.90
12720;DHT22;6424;48.520;11.228;2023-07-31T09:28:45;21.30;99.90
12720;DHT22;6424;48.520;11.228;2023-07-31T09:31:39;21.30;99.90
12720;DHT22;6424;48.520;11.228;2023-07-31T09:34:36;21.40;99.90
12720;DHT22;6424;48.520;11.228;2023-07-31T09:37:18;21.50;99.90
12720;DHT22;6424;48.520;11.228;2023-07-31T09:39:59;21.70;99.90
12720;DHT22;6424;48.520;11.228;2023-07-31T09:42:26;21.80;99.90
12720;DHT22;6424;48.520;11.228;2023-07-31T09:45:08;21.90;99.90
12720;DHT22;6424;48.520;11.228;2023-07-31T09:47:34;21.90;99.90
12720;DHT22;6424;48.520;11.228;2023-07-31T09:50:15;22.00;99.90
12720;DHT22;6424;48.520;11.228;2023-07-31T09:52:59;22.00;99.90
12720;DHT22;6424;48.520;11.228;2023-07-31T09:55:40;22.20;99.90
12720;DHT22;6424;48.520;11.228;2023-07-31T09:58:21;22.20;99.90
12720;DHT22;6424;48.520;11.228;2023-07-31T10:01:02;22.30;99.90
12720;DHT22;6424;48.520;11.228;2023-07-31T10:03:45;22.30;99.90
12720;DHT22;6424;48.520;11.228;2023-07-31T10:06:26;22.20;99.90
12720;DHT22;6424;48.520;11.228;2023-07-31T10:08:53;22.20;99.90
12720;DHT22;6424;48.520;11.228;2023-07-31T10:11:38;22.20;99.90
12720;DHT22;6424;48.520;11.228;2023-07-31T10:14:07;22.30;99.90
12720;DHT22;6424;48.520;11.228;2023-07-31T10:16:49;22.40;99.90
12720;DHT22;6424;48.520;11.228;2023-07-31T10:19:17;22.60;99.90
12720;DHT22;6424;48.520;11.228;2023-07-31T10:22:03;22.80;99.90
12720;DHT22;6424;48.520;11.228;2023-07-31T10:24:48;23.10;99.90
12720;DHT22;6424;48.520;11.228;2023-07-31T10:27:30;23.40;99.90
12720;DHT22;6424;48.520;11.228;2023-07-31T10:30:15;23.60;98.80
12720;DHT22;6424;48.520;11.228;2023-07-31T10:32:57;23.80;98.00
12720;DHT22;6424;48.520;11.228;2023-07-31T10:35:38;23.90;98.20
12720;DHT22;6424;48.520;11.228;2023-07-31T10:38:18;23.70;95.30
12720;DHT22;6424;48.520;11.228;2023-07-31T10:41:08;23.60;97.00
12720;DHT22;6424;48.520;11.228;2023-07-31T10:43:54;23.60;97.00
12720;DHT22;6424;48.520;11.228;2023-07-31T10:46:37;23.80;97.70
12720;DHT22;6424;48.520;11.228;2023-07-31T10:49:21;23.90;95.90
12720;DHT22;6424;48.520;11.228;2023-07-31T10:51:47;23.90;96.00
12720;DHT22;6424;48.520;11.228;2023-07-31T10:54:28;23.90;94.90
12720;DHT22;6424;48.520;11.228;2023-07-31T10:57:22;23.90;95.00
12720;DHT22;6424;48.520;11.228;2023-07-31T11:00:19;23.90;94.90
12720;DHT22;6424;48.520;11.228;2023-07-31T11:03:02;23.90;94.40
12720;DHT22;6424;48.520;11.228;2023-07-31T11:05:51;23.90;94.30
12720;DHT22;6424;48.520;11.228;2023-07-31T11:08:36;24.00;93.90
12720;DHT22;6424;48.520;11.228;2023-07-31T11:11:21;24.00;93.60
12720;DHT22;6424;48.520;11.228;2023-07-31T11:14:02;23.80;95.50
12720;DHT22;6424;48.520;11.228;2023-07-31T11:16:43;23.80;96.00
12720;DHT22;6424;48.520;11.228;2023-07-31T11:19:24;23.90;94.20
12720;DHT22;6424;48.520;11.228;2023-07-31T11:22:05;23.70;94.50
12720;DHT22;6424;48.520;11.228;2023-07-31T11:24:32;23.50;95.40
12720;DHT22;6424;48.520;11.228;2023-07-31T11:27:14;23.60;95.60
12720;DHT22;6424;48.520;11.228;2023-07-31T11:29:40;23.70;96.50
12720;DHT22;6424;48.520;11.228;2023-07-31T11:32:23;24.00;95.40
12720;DHT22;6424;48.520;11.228;2023-07-31T11:35:04;24.20;95.10
12720;DHT22;6424;48.520;11.228;2023-07-31T11:37:46;24.30;95.00
12720;DHT22;6424;48.520;11.228;2023-07-31T11:40:27;24.30;96.00
12720;DHT22;6424;48.520;11.228;2023-07-31T11:43:11;24.60;95.40
12720;DHT22;6424;48.520;11.228;2023-07-31T11:45:58;24.80;94.50
12720;DHT22;6424;48.520;11.228;2023-07-31T11:48:40;24.80;93.20
12720;DHT22;6424;48.520;11.228;2023-07-31T11:51:10;24.70;93.90
12720;DHT22;6424;48.520;11.228;2023-07-31T11:53:54;24.70;94.90
12720;DHT22;6424;48.520;11.228;2023-07-31T11:56:36;24.70;93.00
12720;DHT22;6424;48.520;11.228;2023-07-31T11:59:02;24.70;94.60
12720;DHT22;6424;48.520;11.228;2023-07-31T12:01:44;24.70;93.70
12720;DHT22;6424;48.520;11.228;2023-07-31T12:04:25;24.80;93.00
12720;DHT22;6424;48.520;11.228;2023-07-31T12:07:06;24.70;92.30
12720;DHT22;6424;48.520;11.228;2023-07-31T12:09:54;24.90;94.50
12720;DHT22;6424;48.520;11.228;2023-07-31T12:12:35;25.20;92.10
12720;DHT22;6424;48.520;11.228;2023-07-31T12:15:01;25.30;90.80
12720;DHT22;6424;48.520;11.228;2023-07-31T12:17:42;25.30;90.80
12720;DHT22;6424;48.520;11.228;2023-07-31T12:20:23;25.30;90.50
12720;DHT22;6424;48.520;11.228;2023-07-31T12:23:04;25.50;92.80
12720;DHT22;6424;48.520;11.228;2023-07-31T12:25:45;25.50;90.50
12720;DHT22;6424;48.520;11.228;2023-07-31T12:28:26;25.30;90.10
12720;DHT22;6424;48.520;11.228;2023-07-31T12:31:27;25.20;91.00
12720;DHT22;6424;48.520;11.228;2023-07-31T12:34:20;25.20;90.90
12720;DHT22;6424;48.520;11.228;2023-07-31T12:37:04;25.10;90.80
12720;DHT22;6424;48.520;11.228;2023-07-31T12:39:46;25.10;89.90
12720;DHT22;6424;48.520;11.228;2023-07-31T12:42:27;25.00;90.80
12720;DHT22;6424;48.520;11.228;2023-07-31T12:45:08;24.90;90.50
12720;DHT22;6424;48.520;11.228;2023-07-31T12:47:49;24.80;91.10
12720;DHT22;6424;48.520;11.228;2023-07-31T12:50:31;25.00;90.60
12720;DHT22;6424;48.520;11.228;2023-07-31T12:53:11;25.20;90.00
12720;DHT22;6424;48.520;11.228;2023-07-31T12:55:52;25.30;89.50
12720;DHT22;6424;48.520;11.228;2023-07-31T12:58:18;25.30;90.10
12720;DHT22;6424;48.520;11.228;2023-07-31T13:00:59;25.30;89.00
12720;DHT22;6424;48.520;11.228;2023-07-31T13:03:40;25.40;91.00
12720;DHT22;6424;48.520;11.228;2023-07-31T13:06:20;25.50;88.90
12720;DHT22;6424;48.520;11.228;2023-07-31T13:09:02;25.40;87.10
12720;DHT22;6424;48.520;11.228;2023-07-31T13:11:43;25.20;88.50
12720;DHT22;6424;48.520;11.228;2023-07-31T13:14:23;25.00;89.20
12720;DHT22;6424;48.520;11.228;2023-07-31T13:17:04;24.70;89.20
12720;DHT22;6424;48.520;11.228;2023-07-31T13:19:45;24.60;90.40
12720;DHT22;6424;48.520;11.228;2023-07-31T13:22:26;24.40;91.60
12720;DHT22;6424;48.520;11.228;2023-07-31T13:25:07;24.30;90.50
12720;DHT22;6424;48.520;11.228;2023-07-31T13:27:48;24.30;90.40
12720;DHT22;6424;48.520;11.228;2023-07-31T13:30:14;24.40;90.10
12720;DHT22;6424;48.520;11.228;2023-07-31T13:32:55;24.50;90.00
12720;DHT22;6424;48.520;11.228;2023-07-31T13:35:35;24.60;89.60
12720;DHT22;6424;48.520;11.228;2023-07-31T13:38:16;24.60;88.50
12720;DHT22;6424;48.520;11.228;2023-07-31T13:40:58;24.50;88.10
12720;DHT22;6424;48.520;11.228;2023-07-31T13:43:40;24.50;90.30
12720;DHT22;6424;48.520;11.228;2023-07-31T13:46:07;24.30;89.30
12720;DHT22;6424;48.520;11.228;2023-07-31T13:48:36;24.00;88.30
12720;DHT22;6424;48.520;11.228;2023-07-31T13:51:17;23.90;90.00
12720;DHT22;6424;48.520;11.228;2023-07-31T13:53:58;23.80;90.80
12720;DHT22;6424;48.520;11.228;2023-07-31T13:56:38;23.60;90.70
12720;DHT22;6424;48.520;11.228;2023-07-31T13:59:05;23.50;91.60
12720;DHT22;6424;48.520;11.228;2023-07-31T14:01:46;23.50;91.40
12720;DHT22;6424;48.520;11.228;2023-07-31T14:04:27;23.40;91.30
12720;DHT22;6424;48.520;11.228;2023-07-31T14:07:07;23.60;92.10
12720;DHT22;6424;48.520;11.228;2023-07-31T14:09:48;23.80;92.40
12720;DHT22;6424;48.520;11.228;2023-07-31T14:12:29;23.90;91.30
12720;DHT22;6424;48.520;11.228;2023-07-31T14:15:11;24.00;91.00
12720;DHT22;6424;48.520;11.228;2023-07-31T14:17:51;24.00;91.40
12720;DHT22;6424;48.520;11.228;2023-07-31T14:20:32;24.00;90.90
12720;DHT22;6424;48.520;11.228;2023-07-31T14:23:13;23.90;90.00
12720;DHT22;6424;48.520;11.228;2023-07-31T14:25:54;23.80;91.50
12720;DHT22;6424;48.520;11.228;2023-07-31T14:28:35;23.80;93.50
12720;DHT22;6424;48.520;11.228;2023-07-31T14:31:16;23.60;93.30
12720;DHT22;6424;48.520;11.228;2023-07-31T14:33:56;23.40;92.70
12720;DHT22;6424;48.520;11.228;2023-07-31T14:36:37;23.30;93.00
12720;DHT22;6424;48.520;11.228;2023-07-31T14:39:03;23.30;94.70
12720;DHT22;6424;48.520;11.228;2023-07-31T14:41:29;23.30;93.70
12720;DHT22;6424;48.520;11.228;2023-07-31T14:43:56;23.30;94.30
12720;DHT22;6424;48.520;11.228;2023-07-31T14:46:36;23.30;93.70
12720;DHT22;6424;48.520;11.228;2023-07-31T14:49:17;23.40;93.50
12720;DHT22;6424;48.520;11.228;2023-07-31T14:51:58;23.40;93.40
12720;DHT22;6424;48.520;11.228;2023-07-31T14:54:39;23.40;92.70
12720;DHT22;6424;48.520;11.228;2023-07-31T14:57:05;23.40;93.30
12720;DHT22;6424;48.520;11.228;2023-07-31T14:59:47;23.40;94.30
12720;DHT22;6424;48.520;11.228;2023-07-31T15:02:28;23.40;93.70
12720;DHT22;6424;48.520;11.228;2023-07-31T15:04:54;23.30;92.70
12720;DHT22;6424;48.520;11.228;2023-07-31T15:07:35;23.20;92.70
12720;DHT22;6424;48.520;11.228;2023-07-31T15:10:01;23.10;92.60
12720;DHT22;6424;48.520;11.228;2023-07-31T15:12:43;22.90;93.10
12720;DHT22;6424;48.520;11.228;2023-07-31T15:15:24;22.80;93.80
12720;DHT22;6424;48.520;11.228;2023-07-31T15:18:05;22.70;94.40
12720;DHT22;6424;48.520;11.228;2023-07-31T15:20:46;22.60;94.30
12720;DHT22;6424;48.520;11.228;2023-07-31T15:23:26;22.40;94.90
12720;DHT22;6424;48.520;11.228;2023-07-31T15:26:07;22.30;94.90
12720;DHT22;6424;48.520;11.228;2023-07-31T15:29:05;22.20;95.60
12720;DHT22;6424;48.520;11.228;2023-07-31T15:31:49;22.20;95.20
12720;DHT22;6424;48.520;11.228;2023-07-31T15:34:30;22.10;96.90
12720;DHT22;6424;48.520;11.228;2023-07-31T15:37:10;22.10;96.20
12720;DHT22;6424;48.520;11.228;2023-07-31T15:39:51;22.00;96.50
12720;DHT22;6424;48.520;11.228;2023-07-31T15:42:32;21.90;95.90
12720;DHT22;6424;48.520;11.228;2023-07-31T15:45:03;21.90;96.90
12720;DHT22;6424;48.520;11.228;2023-07-31T15:47:28;21.90;96.60
12720;DHT22;6424;48.520;11.228;2023-07-31T15:50:09;21.90;96.30
12720;DHT22;6424;48.520;11.228;2023-07-31T15:52:50;22.00;97.40
12720;DHT22;6424;48.520;11.228;2023-07-31T15:55:32;22.10;97.50
12720;DHT22;6424;48.520;11.228;2023-07-31T15:58:13;22.10;96.60
12720;DHT22;6424;48.520;11.228;2023-07-31T16:00:54;22.20;97.50
12720;DHT22;6424;48.520;11.228;2023-07-31T16:03:35;22.10;96.10
12720;DHT22;6424;48.520;11.228;2023-07-31T16:06:15;22.10;96.90
12720;DHT22;6424;48.520;11.228;2023-07-31T16:08:57;22.00;97.00
12720;DHT22;6424;48.520;11.228;2023-07-31T16:11:38;22.00;97.90
12720;DHT22;6424;48.520;11.228;2023-07-31T16:14:18;21.90;97.90
12720;DHT22;6424;48.520;11.228;2023-07-31T16:16:59;21.90;97.60
12720;DHT22;6424;48.520;11.228;2023-07-31T16:19:40;21.90;98.20
12720;DHT22;6424;48.520;11.228;2023-07-31T16:22:20;21.90;99.00
12720;DHT22;6424;48.520;11.228;2023-07-31T16:25:01;21.90;98.50
12720;DHT22;6424;48.520;11.228;2023-07-31T16:27:42;21.80;98.50
12720;DHT22;6424;48.520;11.228;2023-07-31T16:30:23;21.70;98.70
12720;DHT22;6424;48.520;11.228;2023-07-31T16:33:04;21.70;99.00
12720;DHT22;6424;48.520;11.228;2023-07-31T16:35:44;21.60;99.50
12720;DHT22;6424;48.520;11.228;2023-07-31T16:38:25;21.60;99.80
12720;DHT22;6424;48.520;11.228;2023-07-31T16:40:51;21.60;99.50
12720;DHT22;6424;48.520;11.228;2023-07-31T16:43:32;21.60;99.90
12720;DHT22;6424;48.520;11.228;2023-07-31T16:46:12;21.60;99.90
12720;DHT22;6424;48.520;11.228;2023-07-31T16:48:53;21.60;99.90
12720;DHT22;6424;48.520;11.228;2023-07-31T16:51:20;21.60;99.90
12720;DHT22;6424;48.520;11.228;2023-07-31T16:54:00;21.60;99.90
12720;DHT22;6424;48.520;11.228;2023-07-31T16:56:41;21.70;99.90